Aviation Digital Data Service (ADDS)

Output produced by METARs form (0725 UTC 19 February 2019)
found at http://www.aviationweather.gov/metar/data/
 
METAR text: HKEL 190700Z 36009KT 9999 FEW021 SCT280 22/06 Q1024
Conditions at: HKEL (ELDORET , KE) observed 0700 UTC 19 February 2019
Temperature: 22.0°C (72°F)
Dewpoint: 6.0°C (43°F) [RH = 35%]
Pressure (altimeter): 30.24 inches Hg (1024.0 mb)
Winds: from the N (360 degrees) at 10 MPH (9 knots; 4.6 m/s)
Visibility: 6 or more miles (10+ km)
Ceiling: at least 12,000 feet AGL
Clouds: few clouds at 2100 feet AGL
scattered clouds at 28000 feet AGL
Weather: no significant weather observed at this time

METAR text: HKEL 190630Z 07004KT CAVOK 22/07 Q1024
Conditions at: HKEL (ELDORET , KE) observed 0630 UTC 19 February 2019
Temperature: 22.0°C (72°F)
Dewpoint: 7.0°C (45°F) [RH = 38%]
Pressure (altimeter): 30.24 inches Hg (1024.0 mb)
Winds: from the ENE (70 degrees) at 5 MPH (4 knots; 2.1 m/s)
Visibility: 6 or more miles (10+ km)
Ceiling: ceiling and visibility are OK
Clouds: unknown
Weather: no significant weather observed at this time

METAR text: HKEL 190600Z 14005KT CAVOK 20/09 Q1024
Conditions at: HKEL (ELDORET , KE) observed 0600 UTC 19 February 2019
Temperature: 20.0°C (68°F)
Dewpoint: 9.0°C (48°F) [RH = 49%]
Pressure (altimeter): 30.24 inches Hg (1024.0 mb)
Winds: from the SE (140 degrees) at 6 MPH (5 knots; 2.6 m/s)
Visibility: 6 or more miles (10+ km)
Ceiling: ceiling and visibility are OK
Clouds: unknown
Weather: no significant weather observed at this time

METAR text: HKEL 190500Z 16005KT 9999 FEW018CB SCT070 14/08 Q1024
Conditions at: HKEL (ELDORET , KE) observed 0500 UTC 19 February 2019
Temperature: 14.0°C (57°F)
Dewpoint: 8.0°C (46°F) [RH = 67%]
Pressure (altimeter): 30.24 inches Hg (1024.0 mb)
Winds: from the SSE (160 degrees) at 6 MPH (5 knots; 2.6 m/s)
Visibility: 6 or more miles (10+ km)
Ceiling: at least 12,000 feet AGL
Clouds: few clouds at 1800 feet AGL
scattered clouds at 7000 feet AGL
Weather: no significant weather observed at this time

METAR text: HKEL 190430Z 15005KT 9999 FEW017CB SCT018 13/08 Q1023
Conditions at: HKEL (ELDORET , KE) observed 0430 UTC 19 February 2019
Temperature: 13.0°C (55°F)
Dewpoint: 8.0°C (46°F) [RH = 72%]
Pressure (altimeter): 30.21 inches Hg (1023.0 mb)
Winds: from the SSE (150 degrees) at 6 MPH (5 knots; 2.6 m/s)
Visibility: 6 or more miles (10+ km)
Ceiling: at least 12,000 feet AGL
Clouds: few clouds at 1700 feet AGL
scattered clouds at 1800 feet AGL
Weather: no significant weather observed at this time

METAR text: HKEL 190400Z 16004KT 9999 FEW017CB SCT018 13/07 Q1023
Conditions at: HKEL (ELDORET , KE) observed 0400 UTC 19 February 2019
Temperature: 13.0°C (55°F)
Dewpoint: 7.0°C (45°F) [RH = 67%]
Pressure (altimeter): 30.21 inches Hg (1023.0 mb)
Winds: from the SSE (160 degrees) at 5 MPH (4 knots; 2.1 m/s)
Visibility: 6 or more miles (10+ km)
Ceiling: at least 12,000 feet AGL
Clouds: few clouds at 1700 feet AGL
scattered clouds at 1800 feet AGL
Weather: no significant weather observed at this time

METAR text: HKEL 190330Z 15006KT 9999 FEW017CB 12/078 Q1023
Conditions at: HKEL (ELDORET , KE) observed 0330 UTC 19 February 2019
Temperature: missing
Dewpoint: missing
Pressure (altimeter): 30.21 inches Hg (1023.0 mb)
Winds: from the SSE (150 degrees) at 7 MPH (6 knots; 3.1 m/s)
Visibility: 6 or more miles (10+ km)
Ceiling: at least 12,000 feet AGL
Clouds: few clouds at 1700 feet AGL
Weather: no significant weather observed at this time

METAR text: HKEL 190300Z 15006KT 9999 FEW017CB 12/07 Q1022
Conditions at: HKEL (ELDORET , KE) observed 0300 UTC 19 February 2019
Temperature: 12.0°C (54°F)
Dewpoint: 7.0°C (45°F) [RH = 71%]
Pressure (altimeter): 30.18 inches Hg (1022.0 mb)
Winds: from the SSE (150 degrees) at 7 MPH (6 knots; 3.1 m/s)
Visibility: 6 or more miles (10+ km)
Ceiling: at least 12,000 feet AGL
Clouds: few clouds at 1700 feet AGL
Weather: no significant weather observed at this time

METAR text: HKEL 190230Z 16008KT 9999 FEW018CB 11/08 Q1022
Conditions at: HKEL (ELDORET , KE) observed 0230 UTC 19 February 2019
Temperature: 11.0°C (52°F)
Dewpoint: 8.0°C (46°F) [RH = 82%]
Pressure (altimeter): 30.18 inches Hg (1022.0 mb)
Winds: from the SSE (160 degrees) at 9 MPH (8 knots; 4.1 m/s)
Visibility: 6 or more miles (10+ km)
Ceiling: at least 12,000 feet AGL
Clouds: few clouds at 1800 feet AGL
Weather: no significant weather observed at this time

METAR text: HKEL 190200Z 15006KT 9999 FEW017CB 11/08 Q1022
Conditions at: HKEL (ELDORET , KE) observed 0200 UTC 19 February 2019
Temperature: 11.0°C (52°F)
Dewpoint: 8.0°C (46°F) [RH = 82%]
Pressure (altimeter): 30.18 inches Hg (1022.0 mb)
Winds: from the SSE (150 degrees) at 7 MPH (6 knots; 3.1 m/s)
Visibility: 6 or more miles (10+ km)
Ceiling: at least 12,000 feet AGL
Clouds: few clouds at 1700 feet AGL
Weather: no significant weather observed at this time

METAR text: HKEL 190130Z 16005KT CAVOK 13/10 Q1022
Conditions at: HKEL (ELDORET , KE) observed 0130 UTC 19 February 2019
Temperature: 13.0°C (55°F)
Dewpoint: 10.0°C (50°F) [RH = 82%]
Pressure (altimeter): 30.18 inches Hg (1022.0 mb)
Winds: from the SSE (160 degrees) at 6 MPH (5 knots; 2.6 m/s)
Visibility: 6 or more miles (10+ km)
Ceiling: ceiling and visibility are OK
Clouds: unknown
Weather: no significant weather observed at this time

METAR text: HKEL 190100Z 17006KT CAVOK 13/10 Q1022
Conditions at: HKEL (ELDORET , KE) observed 0100 UTC 19 February 2019
Temperature: 13.0°C (55°F)
Dewpoint: 10.0°C (50°F) [RH = 82%]
Pressure (altimeter): 30.18 inches Hg (1022.0 mb)
Winds: from the S (170 degrees) at 7 MPH (6 knots; 3.1 m/s)
Visibility: 6 or more miles (10+ km)
Ceiling: ceiling and visibility are OK
Clouds: unknown
Weather: no significant weather observed at this time

METAR text: HKEL 190030Z 11014KT CAVOK 14/11 Q1022
Conditions at: HKEL (ELDORET , KE) observed 0030 UTC 19 February 2019
Temperature: 14.0°C (57°F)
Dewpoint: 11.0°C (52°F) [RH = 82%]
Pressure (altimeter): 30.18 inches Hg (1022.0 mb)
Winds: from the ESE (110 degrees) at 16 MPH (14 knots; 7.2 m/s)
Visibility: 6 or more miles (10+ km)
Ceiling: ceiling and visibility are OK
Clouds: unknown
Weather: no significant weather observed at this time

METAR text: HKEL 190000Z 17004KT CAVOK 14/11 Q1022
Conditions at: HKEL (ELDORET , KE) observed 0000 UTC 19 February 2019
Temperature: 14.0°C (57°F)
Dewpoint: 11.0°C (52°F) [RH = 82%]
Pressure (altimeter): 30.18 inches Hg (1022.0 mb)
Winds: from the S (170 degrees) at 5 MPH (4 knots; 2.1 m/s)
Visibility: 6 or more miles (10+ km)
Ceiling: ceiling and visibility are OK
Clouds: unknown
Weather: no significant weather observed at this time

METAR text: HKEL 182330Z VRB02KT 9999 FEW016 15/12 Q1023
Conditions at: HKEL (ELDORET , KE) observed 2330 UTC 18 February 2019
Temperature: 15.0°C (59°F)
Dewpoint: 12.0°C (54°F) [RH = 82%]
Pressure (altimeter): 30.21 inches Hg (1023.0 mb)
Winds: variable direction winds at 2 MPH (2 knots; 1.0 m/s)
Visibility: 6 or more miles (10+ km)
Ceiling: at least 12,000 feet AGL
Clouds: few clouds at 1600 feet AGL
Weather: no significant weather observed at this time

METAR text: HKEL 182300Z 16003KT 9999 FEW016 15/12 Q1023
Conditions at: HKEL (ELDORET , KE) observed 2300 UTC 18 February 2019
Temperature: 15.0°C (59°F)
Dewpoint: 12.0°C (54°F) [RH = 82%]
Pressure (altimeter): 30.21 inches Hg (1023.0 mb)
Winds: from the SSE (160 degrees) at 3 MPH (3 knots; 1.5 m/s)
Visibility: 6 or more miles (10+ km)
Ceiling: at least 12,000 feet AGL
Clouds: few clouds at 1600 feet AGL
Weather: no significant weather observed at this time

METAR text: HKEL 182230Z 18005KT 9999 SCT018 16/12 Q1024
Conditions at: HKEL (ELDORET , KE) observed 2230 UTC 18 February 2019
Temperature: 16.0°C (61°F)
Dewpoint: 12.0°C (54°F) [RH = 77%]
Pressure (altimeter): 30.24 inches Hg (1024.0 mb)
Winds: from the S (180 degrees) at 6 MPH (5 knots; 2.6 m/s)
Visibility: 6 or more miles (10+ km)
Ceiling: at least 12,000 feet AGL
Clouds: scattered clouds at 1800 feet AGL
Weather: no significant weather observed at this time

METAR text: HKEL 182200Z 17007KT 9999 SCT018 16/12 Q1024
Conditions at: HKEL (ELDORET , KE) observed 2200 UTC 18 February 2019
Temperature: 16.0°C (61°F)
Dewpoint: 12.0°C (54°F) [RH = 77%]
Pressure (altimeter): 30.24 inches Hg (1024.0 mb)
Winds: from the S (170 degrees) at 8 MPH (7 knots; 3.6 m/s)
Visibility: 6 or more miles (10+ km)
Ceiling: at least 12,000 feet AGL
Clouds: scattered clouds at 1800 feet AGL
Weather: no significant weather observed at this time

METAR text: HKEL 182130Z 16007KT 9999 FEW018TCU SCT080 17/12 Q1025
Conditions at: HKEL (ELDORET , KE) observed 2130 UTC 18 February 2019
Temperature: 17.0°C (63°F)
Dewpoint: 12.0°C (54°F) [RH = 72%]
Pressure (altimeter): 30.27 inches Hg (1025.0 mb)
Winds: from the SSE (160 degrees) at 8 MPH (7 knots; 3.6 m/s)
Visibility: 6 or more miles (10+ km)
Ceiling: at least 12,000 feet AGL
Clouds: few clouds at 1800 feet AGL
scattered clouds at 8000 feet AGL
Weather: no significant weather observed at this time

METAR text: HKEL 182100Z 16005KT 9999 FEW018TCU SCT080 17/12 Q1025
Conditions at: HKEL (ELDORET , KE) observed 2100 UTC 18 February 2019
Temperature: 17.0°C (63°F)
Dewpoint: 12.0°C (54°F) [RH = 72%]
Pressure (altimeter): 30.27 inches Hg (1025.0 mb)
Winds: from the SSE (160 degrees) at 6 MPH (5 knots; 2.6 m/s)
Visibility: 6 or more miles (10+ km)
Ceiling: at least 12,000 feet AGL
Clouds: few clouds at 1800 feet AGL
scattered clouds at 8000 feet AGL
Weather: no significant weather observed at this time

METAR text: HKEL 182030Z 17005KT 9999 FEW017CB BKN080 17/13 Q1025
Conditions at: HKEL (ELDORET , KE) observed 2030 UTC 18 February 2019
Temperature: 17.0°C (63°F)
Dewpoint: 13.0°C (55°F) [RH = 77%]
Pressure (altimeter): 30.27 inches Hg (1025.0 mb)
Winds: from the S (170 degrees) at 6 MPH (5 knots; 2.6 m/s)
Visibility: 6 or more miles (10+ km)
Ceiling: 8000 feet AGL
Clouds: few clouds at 1700 feet AGL
broken clouds at 8000 feet AGL
Weather: no significant weather observed at this time

METAR text: HKEL 182000Z 17005KT 9999 FEW017CB BKN080 17/13 Q1025
Conditions at: HKEL (ELDORET , KE) observed 2000 UTC 18 February 2019
Temperature: 17.0°C (63°F)
Dewpoint: 13.0°C (55°F) [RH = 77%]
Pressure (altimeter): 30.27 inches Hg (1025.0 mb)
Winds: from the S (170 degrees) at 6 MPH (5 knots; 2.6 m/s)
Visibility: 6 or more miles (10+ km)
Ceiling: 8000 feet AGL
Clouds: few clouds at 1700 feet AGL
broken clouds at 8000 feet AGL
Weather: no significant weather observed at this time

METAR text: HKEL 181930Z 17005KT 9999 FEW018CB BKN280 17/13 Q1024
Conditions at: HKEL (ELDORET , KE) observed 1930 UTC 18 February 2019
Temperature: 17.0°C (63°F)
Dewpoint: 13.0°C (55°F) [RH = 77%]
Pressure (altimeter): 30.24 inches Hg (1024.0 mb)
Winds: from the S (170 degrees) at 6 MPH (5 knots; 2.6 m/s)
Visibility: 6 or more miles (10+ km)
Ceiling: 28000 feet AGL
Clouds: few clouds at 1800 feet AGL
broken clouds at 28000 feet AGL
Weather: no significant weather observed at this time

METAR text: HKEL 181900Z 18003KT 9999 FEW018CB BKN280 17/12 Q1024
Conditions at: HKEL (ELDORET , KE) observed 1900 UTC 18 February 2019
Temperature: 17.0°C (63°F)
Dewpoint: 12.0°C (54°F) [RH = 72%]
Pressure (altimeter): 30.24 inches Hg (1024.0 mb)
Winds: from the S (180 degrees) at 3 MPH (3 knots; 1.5 m/s)
Visibility: 6 or more miles (10+ km)
Ceiling: 28000 feet AGL
Clouds: few clouds at 1800 feet AGL
broken clouds at 28000 feet AGL
Weather: no significant weather observed at this time

METAR text: HKEL 181830Z VRB02KT 9999 FEW018CB BKN280 18/13 Q1023
Conditions at: HKEL (ELDORET , KE) observed 1830 UTC 18 February 2019
Temperature: 18.0°C (64°F)
Dewpoint: 13.0°C (55°F) [RH = 73%]
Pressure (altimeter): 30.21 inches Hg (1023.0 mb)
Winds: variable direction winds at 2 MPH (2 knots; 1.0 m/s)
Visibility: 6 or more miles (10+ km)
Ceiling: 28000 feet AGL
Clouds: few clouds at 1800 feet AGL
broken clouds at 28000 feet AGL
Weather: no significant weather observed at this time

METAR text: HKEL 181800Z 22003KT 9999 FEW019CB BKN280 18/13 Q1023
Conditions at: HKEL (ELDORET , KE) observed 1800 UTC 18 February 2019
Temperature: 18.0°C (64°F)
Dewpoint: 13.0°C (55°F) [RH = 73%]
Pressure (altimeter): 30.21 inches Hg (1023.0 mb)
Winds: from the SW (220 degrees) at 3 MPH (3 knots; 1.5 m/s)
Visibility: 6 or more miles (10+ km)
Ceiling: 28000 feet AGL
Clouds: few clouds at 1900 feet AGL
broken clouds at 28000 feet AGL
Weather: no significant weather observed at this time

METAR text: HKEL 181730Z 24003KT 9999 FEW019CB BKN280 19/13 Q1023
Conditions at: HKEL (ELDORET , KE) observed 1730 UTC 18 February 2019
Temperature: 19.0°C (66°F)
Dewpoint: 13.0°C (55°F) [RH = 68%]
Pressure (altimeter): 30.21 inches Hg (1023.0 mb)
Winds: from the WSW (240 degrees) at 3 MPH (3 knots; 1.5 m/s)
Visibility: 6 or more miles (10+ km)
Ceiling: 28000 feet AGL
Clouds: few clouds at 1900 feet AGL
broken clouds at 28000 feet AGL
Weather: no significant weather observed at this time

METAR text: HKEL 181700Z 28006KT 9999 FEW020CB BKN300 19/13 Q1022
Conditions at: HKEL (ELDORET , KE) observed 1700 UTC 18 February 2019
Temperature: 19.0°C (66°F)
Dewpoint: 13.0°C (55°F) [RH = 68%]
Pressure (altimeter): 30.18 inches Hg (1022.0 mb)
Winds: from the W (280 degrees) at 7 MPH (6 knots; 3.1 m/s)
Visibility: 6 or more miles (10+ km)
Ceiling: 30000 feet AGL
Clouds: few clouds at 2000 feet AGL
broken clouds at 30000 feet AGL
Weather: no significant weather observed at this time

METAR text: HKEL 181630Z 28008KT 9999 FEW016 FEW020CB BKN300 20/13 Q1021
Conditions at: HKEL (ELDORET , KE) observed 1630 UTC 18 February 2019
Temperature: 20.0°C (68°F)
Dewpoint: 13.0°C (55°F) [RH = 64%]
Pressure (altimeter): 30.15 inches Hg (1021.0 mb)
Winds: from the W (280 degrees) at 9 MPH (8 knots; 4.1 m/s)
Visibility: 6 or more miles (10+ km)
Ceiling: 30000 feet AGL
Clouds: few clouds at 1600 feet AGL
few clouds at 2000 feet AGL
broken clouds at 30000 feet AGL
Weather: no significant weather observed at this time

METAR text: HKEL 181600Z 31006KT 9999 FEW017 FEW022CB BKN300 22/12 Q1020
Conditions at: HKEL (ELDORET , KE) observed 1600 UTC 18 February 2019
Temperature: 22.0°C (72°F)
Dewpoint: 12.0°C (54°F) [RH = 53%]
Pressure (altimeter): 30.12 inches Hg (1020.0 mb)
Winds: from the NW (310 degrees) at 7 MPH (6 knots; 3.1 m/s)
Visibility: 6 or more miles (10+ km)
Ceiling: 30000 feet AGL
Clouds: few clouds at 1700 feet AGL
few clouds at 2200 feet AGL
broken clouds at 30000 feet AGL
Weather: no significant weather observed at this time

METAR text: HKEL 181530Z 11010KT 9999 FEW024CB BKN300 24/M01 Q1020
Conditions at: HKEL (ELDORET , KE) observed 1530 UTC 18 February 2019
Temperature: 24.0°C (75°F)
Dewpoint: -1.0°C (30°F) [RH = 19%]
Pressure (altimeter): 30.12 inches Hg (1020.0 mb)
Winds: from the ESE (110 degrees) at 12 MPH (10 knots; 5.1 m/s)
Visibility: 6 or more miles (10+ km)
Ceiling: 30000 feet AGL
Clouds: few clouds at 2400 feet AGL
broken clouds at 30000 feet AGL
Weather: no significant weather observed at this time

METAR text: HKEL 181500Z 10009KT 9999 FEW025CB BKN300 27/M00 Q1020
Conditions at: HKEL (ELDORET , KE) observed 1500 UTC 18 February 2019
Temperature: 27.0°C (81°F)
Dewpoint: 0.0°C (32°F) [RH = 17%]
Pressure (altimeter): 30.12 inches Hg (1020.0 mb)
Winds: from the E (100 degrees) at 10 MPH (9 knots; 4.6 m/s)
Visibility: 6 or more miles (10+ km)
Ceiling: 30000 feet AGL
Clouds: few clouds at 2500 feet AGL
broken clouds at 30000 feet AGL
Weather: no significant weather observed at this time

METAR text: HKEL 181430Z 08008KT 9999 FEW026CB 27/M00 Q1020
Conditions at: HKEL (ELDORET , KE) observed 1430 UTC 18 February 2019
Temperature: 27.0°C (81°F)
Dewpoint: 0.0°C (32°F) [RH = 17%]
Pressure (altimeter): 30.12 inches Hg (1020.0 mb)
Winds: from the E (80 degrees) at 9 MPH (8 knots; 4.1 m/s)
Visibility: 6 or more miles (10+ km)
Ceiling: at least 12,000 feet AGL
Clouds: few clouds at 2600 feet AGL
Weather: no significant weather observed at this time

METAR text: HKEL 181400Z 11009KT 9999 FEW026CB 27/01 Q1020
Conditions at: HKEL (ELDORET , KE) observed 1400 UTC 18 February 2019
Temperature: 27.0°C (81°F)
Dewpoint: 1.0°C (34°F) [RH = 18%]
Pressure (altimeter): 30.12 inches Hg (1020.0 mb)
Winds: from the ESE (110 degrees) at 10 MPH (9 knots; 4.6 m/s)
Visibility: 6 or more miles (10+ km)
Ceiling: at least 12,000 feet AGL
Clouds: few clouds at 2600 feet AGL
Weather: no significant weather observed at this time

METAR text: HKEL 181330Z 14011KT 9999 FEW027CB 27/01 Q1020
Conditions at: HKEL (ELDORET , KE) observed 1330 UTC 18 February 2019
Temperature: 27.0°C (81°F)
Dewpoint: 1.0°C (34°F) [RH = 18%]
Pressure (altimeter): 30.12 inches Hg (1020.0 mb)
Winds: from the SE (140 degrees) at 13 MPH (11 knots; 5.7 m/s)
Visibility: 6 or more miles (10+ km)
Ceiling: at least 12,000 feet AGL
Clouds: few clouds at 2700 feet AGL
Weather: no significant weather observed at this time

METAR text: HKEL 181300Z 16009KT 9999 FEW027CB 28/M02 Q1021
Conditions at: HKEL (ELDORET , KE) observed 1300 UTC 18 February 2019
Temperature: 28.0°C (82°F)
Dewpoint: -2.0°C (28°F) [RH = 14%]
Pressure (altimeter): 30.15 inches Hg (1021.0 mb)
Winds: from the SSE (160 degrees) at 10 MPH (9 knots; 4.6 m/s)
Visibility: 6 or more miles (10+ km)
Ceiling: at least 12,000 feet AGL
Clouds: few clouds at 2700 feet AGL
Weather: no significant weather observed at this time

METAR text: HKEL 181230Z VRB05KTKT 9999 FEW027CB 28/M01 Q1020
Conditions at: HKEL (ELDORET , KE) observed 1230 UTC 18 February 2019
Temperature: 28.0°C (82°F)
Dewpoint: -1.0°C (30°F) [RH = 15%]
Pressure (altimeter): 30.12 inches Hg (1020.0 mb)
Winds: missing
Visibility: 6 or more miles (10+ km)
Ceiling: at least 12,000 feet AGL
Clouds: few clouds at 2700 feet AGL
Weather: no significant weather observed at this time

METAR text: HKEL 181200Z VRB03KT 9999 FEW027CB 27/01 Q1021
Conditions at: HKEL (ELDORET , KE) observed 1200 UTC 18 February 2019
Temperature: 27.0°C (81°F)
Dewpoint: 1.0°C (34°F) [RH = 18%]
Pressure (altimeter): 30.15 inches Hg (1021.0 mb)
Winds: variable direction winds at 3 MPH (3 knots; 1.5 m/s)
Visibility: 6 or more miles (10+ km)
Ceiling: at least 12,000 feet AGL
Clouds: few clouds at 2700 feet AGL
Weather: no significant weather observed at this time

METAR text: HKEL 181130Z 17008KT 9999 FEW026CB SCT300 27/M01 Q1021
Conditions at: HKEL (ELDORET , KE) observed 1130 UTC 18 February 2019
Temperature: 27.0°C (81°F)
Dewpoint: -1.0°C (30°F) [RH = 16%]
Pressure (altimeter): 30.15 inches Hg (1021.0 mb)
Winds: from the S (170 degrees) at 9 MPH (8 knots; 4.1 m/s)
Visibility: 6 or more miles (10+ km)
Ceiling: at least 12,000 feet AGL
Clouds: few clouds at 2600 feet AGL
scattered clouds at 30000 feet AGL
Weather: no significant weather observed at this time

METAR text: HKEL 181100Z 12012KT 9999 FEW026CB 27/M03 Q1026
Conditions at: HKEL (ELDORET , KE) observed 1100 UTC 18 February 2019
Temperature: 27.0°C (81°F)
Dewpoint: -3.0°C (27°F) [RH = 14%]
Pressure (altimeter): 30.30 inches Hg (1026.0 mb)
Winds: from the ESE (120 degrees) at 14 MPH (12 knots; 6.2 m/s)
Visibility: 6 or more miles (10+ km)
Ceiling: at least 12,000 feet AGL
Clouds: few clouds at 2600 feet AGL
Weather: no significant weather observed at this time

METAR text: HKEL 181030Z 10011KT 9999 FEW026CB 27/00 Q1023
Conditions at: HKEL (ELDORET , KE) observed 1030 UTC 18 February 2019
Temperature: 27.0°C (81°F)
Dewpoint: 0.0°C (32°F) [RH = 17%]
Pressure (altimeter): 30.21 inches Hg (1023.0 mb)
Winds: from the E (100 degrees) at 13 MPH (11 knots; 5.7 m/s)
Visibility: 6 or more miles (10+ km)
Ceiling: at least 12,000 feet AGL
Clouds: few clouds at 2600 feet AGL
Weather: no significant weather observed at this time

METAR text: HKEL 181000Z 11013KT 9999 FEW025CB 27/M01 Q1024
Conditions at: HKEL (ELDORET , KE) observed 1000 UTC 18 February 2019
Temperature: 27.0°C (81°F)
Dewpoint: -1.0°C (30°F) [RH = 16%]
Pressure (altimeter): 30.24 inches Hg (1024.0 mb)
Winds: from the ESE (110 degrees) at 15 MPH (13 knots; 6.7 m/s)
Visibility: 6 or more miles (10+ km)
Ceiling: at least 12,000 feet AGL
Clouds: few clouds at 2500 feet AGL
Weather: no significant weather observed at this time

METAR text: HKEL 180930Z 11014KT 9999 FEW025CB SCT290 27/M01 Q1024
Conditions at: HKEL (ELDORET , KE) observed 0930 UTC 18 February 2019
Temperature: 27.0°C (81°F)
Dewpoint: -1.0°C (30°F) [RH = 16%]
Pressure (altimeter): 30.24 inches Hg (1024.0 mb)
Winds: from the ESE (110 degrees) at 16 MPH (14 knots; 7.2 m/s)
Visibility: 6 or more miles (10+ km)
Ceiling: at least 12,000 feet AGL
Clouds: few clouds at 2500 feet AGL
scattered clouds at 29000 feet AGL
Weather: no significant weather observed at this time

METAR text: HKEL 180900Z 07011KT 9999 FEW025CB SCT290 26/M01 Q1025
Conditions at: HKEL (ELDORET , KE) observed 0900 UTC 18 February 2019
Temperature: 26.0°C (79°F)
Dewpoint: -1.0°C (30°F) [RH = 17%]
Pressure (altimeter): 30.27 inches Hg (1025.0 mb)
Winds: from the ENE (70 degrees) at 13 MPH (11 knots; 5.7 m/s)
Visibility: 6 or more miles (10+ km)
Ceiling: at least 12,000 feet AGL
Clouds: few clouds at 2500 feet AGL
scattered clouds at 29000 feet AGL
Weather: no significant weather observed at this time

METAR text: HKEL 180830Z 08013KT 9999 FEW024CB 26/M02 Q1025
Conditions at: HKEL (ELDORET , KE) observed 0830 UTC 18 February 2019
Temperature: 26.0°C (79°F)
Dewpoint: -2.0°C (28°F) [RH = 16%]
Pressure (altimeter): 30.27 inches Hg (1025.0 mb)
Winds: from the E (80 degrees) at 15 MPH (13 knots; 6.7 m/s)
Visibility: 6 or more miles (10+ km)
Ceiling: at least 12,000 feet AGL
Clouds: few clouds at 2400 feet AGL
Weather: no significant weather observed at this time

METAR text: HKEL 180800Z 09010KT 9999 FEW024CB SCT280 25/M05 Q1025
Conditions at: HKEL (ELDORET , KE) observed 0800 UTC 18 February 2019
Temperature: 25.0°C (77°F)
Dewpoint: -5.0°C (23°F) [RH = 13%]
Pressure (altimeter): 30.27 inches Hg (1025.0 mb)
Winds: from the E (90 degrees) at 12 MPH (10 knots; 5.1 m/s)
Visibility: 6 or more miles (10+ km)
Ceiling: at least 12,000 feet AGL
Clouds: few clouds at 2400 feet AGL
scattered clouds at 28000 feet AGL
Weather: no significant weather observed at this time

METAR text: HKEL 180730Z 09008G18KT 9999 FEW022CB BKN260 25/M00 Q1025
Conditions at: HKEL (ELDORET , KE) observed 0730 UTC 18 February 2019
Temperature: 25.0°C (77°F)
Dewpoint: 0.0°C (32°F) [RH = 19%]
Pressure (altimeter): 30.27 inches Hg (1025.0 mb)
Winds: from the E (90 degrees) at 9 MPH (8 knots; 4.1 m/s)
gusting to 21 MPH (18 knots; 9.3 m/s)
Visibility: 6 or more miles (10+ km)
Ceiling: 26000 feet AGL
Clouds: few clouds at 2200 feet AGL
broken clouds at 26000 feet AGL
Weather: no significant weather observed at this time

METAR text: HKEL 180700Z 09009KT 9999 FEW022CB BKN260 24/01 Q1026
Conditions at: HKEL (ELDORET , KE) observed 0700 UTC 18 February 2019
Temperature: 24.0°C (75°F)
Dewpoint: 1.0°C (34°F) [RH = 22%]
Pressure (altimeter): 30.30 inches Hg (1026.0 mb)
Winds: from the E (90 degrees) at 10 MPH (9 knots; 4.6 m/s)
Visibility: 6 or more miles (10+ km)
Ceiling: 26000 feet AGL
Clouds: few clouds at 2200 feet AGL
broken clouds at 26000 feet AGL
Weather: no significant weather observed at this time

METAR text: HKEL 180630Z 11008KT 9999 FEW021CB BKN250 24/03 Q1026
Conditions at: HKEL (ELDORET , KE) observed 0630 UTC 18 February 2019
Temperature: 24.0°C (75°F)
Dewpoint: 3.0°C (37°F) [RH = 25%]
Pressure (altimeter): 30.30 inches Hg (1026.0 mb)
Winds: from the ESE (110 degrees) at 9 MPH (8 knots; 4.1 m/s)
Visibility: 6 or more miles (10+ km)
Ceiling: 25000 feet AGL
Clouds: few clouds at 2100 feet AGL
broken clouds at 25000 feet AGL
Weather: no significant weather observed at this time

METAR text: HKEL 180600Z 10009KT 9999 FEW021CB BKN250 21/05 Q1026
Conditions at: HKEL (ELDORET , KE) observed 0600 UTC 18 February 2019
Temperature: 21.0°C (70°F)
Dewpoint: 5.0°C (41°F) [RH = 35%]
Pressure (altimeter): 30.30 inches Hg (1026.0 mb)
Winds: from the E (100 degrees) at 10 MPH (9 knots; 4.6 m/s)
Visibility: 6 or more miles (10+ km)
Ceiling: 25000 feet AGL
Clouds: few clouds at 2100 feet AGL
broken clouds at 25000 feet AGL
Weather: no significant weather observed at this time

METAR text: HKEL 180530Z 12010KT 9999 FEW017CB BKN250 19/08 Q1025
Conditions at: HKEL (ELDORET , KE) observed 0530 UTC 18 February 2019
Temperature: 19.0°C (66°F)
Dewpoint: 8.0°C (46°F) [RH = 49%]
Pressure (altimeter): 30.27 inches Hg (1025.0 mb)
Winds: from the ESE (120 degrees) at 12 MPH (10 knots; 5.1 m/s)
Visibility: 6 or more miles (10+ km)
Ceiling: 25000 feet AGL
Clouds: few clouds at 1700 feet AGL
broken clouds at 25000 feet AGL
Weather: no significant weather observed at this time

METAR text: HKEL 180500Z 14004KT 9999 FEW017CB BKN250 15/07 Q1025
Conditions at: HKEL (ELDORET , KE) observed 0500 UTC 18 February 2019
Temperature: 15.0°C (59°F)
Dewpoint: 7.0°C (45°F) [RH = 59%]
Pressure (altimeter): 30.27 inches Hg (1025.0 mb)
Winds: from the SE (140 degrees) at 5 MPH (4 knots; 2.1 m/s)
Visibility: 6 or more miles (10+ km)
Ceiling: 25000 feet AGL
Clouds: few clouds at 1700 feet AGL
broken clouds at 25000 feet AGL
Weather: no significant weather observed at this time

METAR text: HKEL 180400Z 13007KT 9999 FEW017CB BKN250 12/07 Q1024
Conditions at: HKEL (ELDORET , KE) observed 0400 UTC 18 February 2019
Temperature: 12.0°C (54°F)
Dewpoint: 7.0°C (45°F) [RH = 71%]
Pressure (altimeter): 30.24 inches Hg (1024.0 mb)
Winds: from the SE (130 degrees) at 8 MPH (7 knots; 3.6 m/s)
Visibility: 6 or more miles (10+ km)
Ceiling: 25000 feet AGL
Clouds: few clouds at 1700 feet AGL
broken clouds at 25000 feet AGL
Weather: no significant weather observed at this time

METAR text: HKEL 180330Z 13007KT 9999 FEW017CB SCT250 12/07 Q1024
Conditions at: HKEL (ELDORET , KE) observed 0330 UTC 18 February 2019
Temperature: 12.0°C (54°F)
Dewpoint: 7.0°C (45°F) [RH = 71%]
Pressure (altimeter): 30.24 inches Hg (1024.0 mb)
Winds: from the SE (130 degrees) at 8 MPH (7 knots; 3.6 m/s)
Visibility: 6 or more miles (10+ km)
Ceiling: at least 12,000 feet AGL
Clouds: few clouds at 1700 feet AGL
scattered clouds at 25000 feet AGL
Weather: no significant weather observed at this time

METAR text: HKEL 180300Z 13010KT 9999 FEW017CB 13/07 Q1024
Conditions at: HKEL (ELDORET , KE) observed 0300 UTC 18 February 2019
Temperature: 13.0°C (55°F)
Dewpoint: 7.0°C (45°F) [RH = 67%]
Pressure (altimeter): 30.24 inches Hg (1024.0 mb)
Winds: from the SE (130 degrees) at 12 MPH (10 knots; 5.1 m/s)
Visibility: 6 or more miles (10+ km)
Ceiling: at least 12,000 feet AGL
Clouds: few clouds at 1700 feet AGL
Weather: no significant weather observed at this time

METAR text: HKEL 180200Z 20004KT CAVOK 14/07 Q1024
Conditions at: HKEL (ELDORET , KE) observed 0200 UTC 18 February 2019
Temperature: 14.0°C (57°F)
Dewpoint: 7.0°C (45°F) [RH = 63%]
Pressure (altimeter): 30.24 inches Hg (1024.0 mb)
Winds: from the SSW (200 degrees) at 5 MPH (4 knots; 2.1 m/s)
Visibility: 6 or more miles (10+ km)
Ceiling: ceiling and visibility are OK
Clouds: unknown
Weather: no significant weather observed at this time

METAR text: HKEL 180100Z 12005KT CAVOK 14/07 Q1024
Conditions at: HKEL (ELDORET , KE) observed 0100 UTC 18 February 2019
Temperature: 14.0°C (57°F)
Dewpoint: 7.0°C (45°F) [RH = 63%]
Pressure (altimeter): 30.24 inches Hg (1024.0 mb)
Winds: from the ESE (120 degrees) at 6 MPH (5 knots; 2.6 m/s)
Visibility: 6 or more miles (10+ km)
Ceiling: ceiling and visibility are OK
Clouds: unknown
Weather: no significant weather observed at this time

METAR text: HKEL 180000Z 11006KT CAVOK 14/07 Q1024
Conditions at: HKEL (ELDORET , KE) observed 0000 UTC 18 February 2019
Temperature: 14.0°C (57°F)
Dewpoint: 7.0°C (45°F) [RH = 63%]
Pressure (altimeter): 30.24 inches Hg (1024.0 mb)
Winds: from the ESE (110 degrees) at 7 MPH (6 knots; 3.1 m/s)
Visibility: 6 or more miles (10+ km)
Ceiling: ceiling and visibility are OK
Clouds: unknown
Weather: no significant weather observed at this time

METAR text: HKEL 172300Z 10007KT CAVOK 15/10 Q1025
Conditions at: HKEL (ELDORET , KE) observed 2300 UTC 17 February 2019
Temperature: 15.0°C (59°F)
Dewpoint: 10.0°C (50°F) [RH = 72%]
Pressure (altimeter): 30.27 inches Hg (1025.0 mb)
Winds: from the E (100 degrees) at 8 MPH (7 knots; 3.6 m/s)
Visibility: 6 or more miles (10+ km)
Ceiling: ceiling and visibility are OK
Clouds: unknown
Weather: no significant weather observed at this time

METAR text: HKEL 172100Z 1006KT 9999 FEW017CB 16/12 Q1025
Conditions at: HKEL (ELDORET , KE) observed 2100 UTC 17 February 2019
Temperature: 16.0°C (61°F)
Dewpoint: 12.0°C (54°F) [RH = 77%]
Pressure (altimeter): 30.27 inches Hg (1025.0 mb)
Winds: missing
Visibility: 6 or more miles (10+ km)
Ceiling: at least 12,000 feet AGL
Clouds: few clouds at 1700 feet AGL
Weather: no significant weather observed at this time

METAR text: HKEL 172000Z 16005KT 9999 FEW018CB SCT080 29/15 Q1025
Conditions at: HKEL (ELDORET , KE) observed 2000 UTC 17 February 2019
Temperature: 29.0°C (84°F)
Dewpoint: 15.0°C (59°F) [RH = 43%]
Pressure (altimeter): 30.27 inches Hg (1025.0 mb)
Winds: from the SSE (160 degrees) at 6 MPH (5 knots; 2.6 m/s)
Visibility: 6 or more miles (10+ km)
Ceiling: at least 12,000 feet AGL
Clouds: few clouds at 1800 feet AGL
scattered clouds at 8000 feet AGL
Weather: no significant weather observed at this time

Forecast for: HKEL (ELDORET , KE)
Text: TAF HKEL 190500Z 1903/2006 15005KT 9999 FEW017CB
Forecast period: 0300 to 0600 UTC 19 February 2019
Forecast type: FROM: standard forecast or significant change
Winds: from the SSE (150 degrees) at 6 MPH (5 knots; 2.6 m/s)
Visibility: 6 or more miles 10+ km)
Ceiling: at least 12,000 feet AGL
Clouds: few clouds at 1700 feet AGL
Weather: no significant weather forecast for this period
Text: BECMG 1906/1909 CAVOK
Forecast period: 0600 to 1500 UTC 19 February 2019
Forecast type: BECOMING: Conditions expected to become as follows by 0900 UTC 19 February 2019
Winds: from the SSE (150 degrees) at 6 MPH (5 knots; 2.6 m/s)
Visibility: 6 or more miles 10+ km)
Ceiling: unknown
Clouds: missing
Weather: NSW  (no significant weather)
Text: BECMG 1915/1918 18005KT BKN022
Forecast period: 1500 to 2100 UTC 19 February 2019
Forecast type: BECOMING: Conditions expected to become as follows by 1800 UTC 19 February 2019
Winds: from the S (180 degrees) at 6 MPH (5 knots; 2.6 m/s)
Visibility: 6 or more miles 10+ km)
Ceiling: 2200 feet AGL
Clouds: broken clouds at 2200 feet AGL
Weather: NSW  (no significant weather)
Text: BECMG
Forecast period: 1800 to 2100 UTC 19 February 2019
Forecast type: PROBABLE: 30 percent likelihood of the following during this time
Winds: from the E (90 degrees) at 6 MPH (5 knots; 2.6 m/s)
Visibility: missing
Ceiling: 2200 feet AGL
Clouds: few clouds at 2000 feet AGL
broken clouds at 2200 feet AGL
broken clouds at 8000 feet AGL
Weather: -SHRA  (light rain showers)
Text: PROB30 1918/1921 09005KT -SHRA FEW020CB BKN022 BKN080
Forecast period: 2100 UTC 19 February 2019 to 0300 UTC 20 February 2019
Forecast type: BECOMING: Conditions expected to become as follows by 2300 UTC 19 February 2019
Winds: from the S (180 degrees) at 6 MPH (5 knots; 2.6 m/s)
Visibility: 6 or more miles 10+ km)
Ceiling: at least 12,000 feet AGL
Clouds: few clouds at 2000 feet AGL
scattered clouds at 2200 feet AGL
Weather: NSW  (no significant weather)
Text: BECMG 1921/1923 NSW FEW020CB SCT022
Forecast period: 0300 to 0600 UTC 20 February 2019
Forecast type: BECOMING: Conditions expected to become as follows by 0600 UTC 20 February 2019
Winds: from the S (180 degrees) at 6 MPH (5 knots; 2.6 m/s)
Visibility: 6 or more miles 10+ km)
Ceiling: unknown
Clouds: missing
Weather: NSW  (no significant weather)